createdAt,value
2017-05-18T00:01:12.516Z,36.96
2017-05-18T00:02:12.742Z,36.96
2017-05-18T00:03:12.683Z,36.47
2017-05-18T00:04:12.620Z,37.05
2017-05-18T00:05:12.560Z,36.66
2017-05-18T00:06:12.646Z,36.76
2017-05-18T00:07:12.432Z,37.73
2017-05-18T00:08:12.373Z,37.24
2017-05-18T00:09:12.313Z,37.24
2017-05-18T00:10:12.250Z,37.15
2017-05-18T00:11:12.187Z,37.24
2017-05-18T00:12:12.125Z,37.15
2017-05-18T00:13:12.128Z,37.24
2017-05-18T00:14:12.002Z,37.15
2017-05-18T00:15:11.940Z,37.05
2017-05-18T00:16:11.576Z,37.05
2017-05-18T00:17:11.818Z,37.05
2017-05-18T00:18:11.757Z,36.96
2017-05-18T00:19:11.695Z,37.24
2017-05-18T00:20:11.633Z,36.96
2017-05-18T00:21:11.268Z,37.15
2017-05-18T00:22:11.207Z,36.76
2017-05-18T00:23:11.453Z,36.96
2017-05-18T00:24:11.386Z,36.96
2017-05-18T00:25:11.330Z,37.15
2017-05-18T00:26:11.264Z,37.15
2017-05-18T00:27:11.203Z,36.76
2017-05-18T00:28:11.141Z,36.86
2017-05-18T00:29:10.778Z,36.76
2017-05-18T00:30:11.014Z,36.86
2017-05-18T00:31:10.955Z,36.86
2017-05-18T00:32:10.590Z,36.76
2017-05-18T00:33:10.831Z,36.86
2017-05-18T00:34:10.774Z,36.76
2017-05-18T00:35:10.409Z,36.76
2017-05-18T00:36:10.650Z,36.76
2017-05-18T00:37:10.587Z,36.47
2017-05-18T00:38:10.225Z,36.86
2017-05-18T00:39:10.161Z,36.96
2017-05-18T00:40:10.403Z,36.47
2017-05-18T00:41:10.344Z,36.86
2017-05-18T00:42:10.279Z,36.96
2017-05-18T00:43:10.231Z,36.76
2017-05-18T00:44:10.155Z,36.86
2017-05-18T00:45:09.792Z,36.96
2017-05-18T00:46:10.034Z,36.96
2017-05-18T00:47:09.975Z,36.66
2017-05-18T00:48:09.911Z,36.96
2017-05-18T00:49:09.849Z,36.76
2017-05-18T00:50:09.786Z,36.86
2017-05-18T00:51:09.726Z,36.86
2017-05-18T00:52:09.665Z,37.05
2017-05-18T00:53:09.602Z,36.86
2017-05-18T00:54:09.541Z,37.05
2017-05-18T00:55:09.479Z,37.15
2017-05-18T00:56:09.420Z,37.24
2017-05-18T00:57:09.356Z,37.15
2017-05-18T00:58:09.296Z,37.15
2017-05-18T00:59:09.232Z,36.96
2017-05-18T01:00:09.170Z,37.15
2017-05-18T01:01:09.109Z,37.05
2017-05-18T01:02:09.046Z,37.15
2017-05-18T01:03:08.984Z,37.05
2017-05-18T01:04:08.935Z,37.15
2017-05-18T01:05:08.865Z,37.24
2017-05-18T01:06:08.800Z,37.15
2017-05-18T01:07:08.436Z,37.05
2017-05-18T01:08:08.678Z,37.24
2017-05-18T01:09:08.620Z,37.15
2017-05-18T01:10:08.555Z,37.24
2017-05-18T01:11:08.493Z,37.15
2017-05-18T01:12:08.433Z,37.05
2017-05-18T01:13:08.371Z,36.86
2017-05-18T01:14:08.307Z,37.34
2017-05-18T01:15:08.249Z,37.15
2017-05-18T01:16:08.185Z,37.15
2017-05-18T01:17:08.178Z,37.24
2017-05-18T01:18:08.063Z,37.05
2017-05-18T01:19:08.000Z,37.05
2017-05-18T01:20:07.943Z,37.15
2017-05-18T01:21:07.881Z,37.05
2017-05-18T01:22:07.818Z,37.15
2017-05-18T01:23:07.754Z,36.96
2017-05-18T01:24:07.695Z,37.05
2017-05-18T01:25:07.631Z,36.96
2017-05-18T01:26:07.572Z,37.15
2017-05-18T01:27:07.510Z,37.15
2017-05-18T01:28:07.453Z,37.24
2017-05-18T01:29:07.386Z,37.44
2017-05-18T01:31:07.263Z,37.34
2017-05-18T01:32:07.200Z,37.15
2017-05-18T01:33:07.142Z,37.24
2017-05-18T01:34:07.078Z,37.24
2017-05-18T01:35:07.016Z,37.34
2017-05-18T01:36:06.956Z,37.15
2017-05-18T01:37:06.899Z,37.24
2017-05-18T01:38:06.833Z,37.05
2017-05-18T01:39:06.771Z,37.15
2017-05-18T01:40:06.707Z,37.15
2017-05-18T01:41:06.647Z,37.15
2017-05-18T01:42:06.589Z,37.24
2017-05-18T01:43:06.534Z,37.05
2017-05-18T01:44:06.465Z,36.96
2017-05-18T01:45:06.399Z,36.96
2017-05-18T01:46:06.339Z,37.15
2017-05-18T01:47:06.333Z,36.96
2017-05-18T01:48:06.223Z,37.05
2017-05-18T01:49:06.157Z,37.15
2017-05-18T01:50:05.790Z,37.15
2017-05-18T01:51:06.031Z,36.96
2017-05-18T01:52:05.973Z,37.15
2017-05-18T01:53:05.907Z,37.34
2017-05-18T01:54:05.850Z,37.34
2017-05-18T01:55:05.802Z,37.34
2017-05-18T01:56:05.724Z,37.34
2017-05-18T01:57:05.661Z,37.34
2017-05-18T01:58:05.619Z,37.15
2017-05-18T01:59:05.558Z,36.86
2017-05-18T02:00:05.493Z,37.24
2017-05-18T02:01:05.432Z,37.24
2017-05-18T02:02:05.354Z,37.34
2017-05-18T02:03:05.299Z,37.44
2017-05-18T02:04:05.236Z,37.24
2017-05-18T02:05:05.171Z,37.34
2017-05-18T02:06:05.111Z,37.34
2017-05-18T02:07:05.052Z,37.24
2017-05-18T02:08:04.985Z,37.34
2017-05-18T02:09:04.925Z,37.15
2017-05-18T02:10:04.864Z,37.05
2017-05-18T02:11:04.805Z,36.96
2017-05-18T02:12:04.742Z,37.15
2017-05-18T02:13:04.376Z,37.44
2017-05-18T02:14:04.618Z,37.34
2017-05-18T02:15:04.556Z,36.96
2017-05-18T02:16:04.493Z,37.34
2017-05-18T02:17:04.435Z,36.96
2017-05-18T02:18:04.371Z,37.44
2017-05-18T02:19:04.308Z,37.44
2017-05-18T02:20:04.246Z,37.15
2017-05-18T02:21:04.186Z,37.34
2017-05-18T02:22:04.125Z,37.15
2017-05-18T02:23:04.061Z,37.05
2017-05-18T02:24:04.001Z,37.34
2017-05-18T02:25:03.941Z,36.96
2017-05-18T02:26:03.880Z,37.34
2017-05-18T02:27:03.816Z,37.34
2017-05-18T02:28:03.754Z,37.44
2017-05-18T02:29:03.691Z,37.52
2017-05-18T02:30:03.644Z,37.34
2017-05-18T02:31:03.570Z,37.54
2017-05-18T02:32:03.508Z,37.15
2017-05-18T02:33:03.449Z,37.44
2017-05-18T02:34:03.386Z,37.54
2017-05-18T02:35:03.324Z,37.54
2017-05-18T02:36:03.263Z,37.44
2017-05-18T02:37:03.201Z,37.34
2017-05-18T02:38:03.139Z,37.54
2017-05-18T02:39:03.086Z,37.54
2017-05-18T02:40:03.030Z,37.54
2017-05-18T02:41:02.957Z,37.63
2017-05-18T02:42:02.893Z,37.82
2017-05-18T02:43:02.831Z,37.54
2017-05-18T02:44:02.775Z,37.34
2017-05-18T02:45:02.708Z,37.92
2017-05-18T02:46:02.646Z,37.44
2017-05-18T02:47:02.585Z,37.73
2017-05-18T02:48:02.522Z,37.44
2017-05-18T02:49:02.461Z,37.92
2017-05-18T02:50:02.400Z,37.44
2017-05-18T02:51:02.399Z,37.63
2017-05-18T02:52:02.277Z,37.34
2017-05-18T02:53:02.229Z,37.44
2017-05-18T02:54:02.152Z,37.44
2017-05-18T02:55:02.091Z,37.54
2017-05-18T02:56:02.029Z,37.92
2017-05-18T02:57:02.018Z,37.54
2017-05-18T02:58:01.904Z,37.63
2017-05-18T02:59:01.845Z,37.92
2017-05-18T03:00:01.784Z,37.54
2017-05-18T03:01:01.419Z,37.82
2017-05-18T03:02:01.663Z,37.73
2017-05-18T03:03:01.597Z,37.73
2017-05-18T03:04:01.540Z,37.81
2017-05-18T03:05:01.477Z,38.02
2017-05-18T03:06:01.413Z,37.63
2017-05-18T03:07:01.350Z,37.82
2017-05-18T03:08:01.293Z,37.82
2017-05-18T03:09:01.229Z,37.63
2017-05-18T03:10:01.178Z,37.92
2017-05-18T03:11:01.113Z,37.63
2017-05-18T03:12:01.048Z,37.63
2017-05-18T03:13:00.984Z,37.82
2017-05-18T03:14:00.921Z,37.54
2017-05-18T03:15:00.858Z,37.73
2017-05-18T03:16:00.799Z,37.73
2017-05-18T03:17:00.790Z,37.73
2017-05-18T03:18:00.677Z,37.73
2017-05-18T03:19:00.618Z,37.82
2017-05-18T03:20:00.566Z,37.92
2017-05-18T03:21:00.495Z,37.63
2017-05-18T03:22:00.431Z,37.73
2017-05-18T03:23:00.369Z,37.62
2017-05-18T03:24:00.308Z,37.42
2017-05-18T03:25:00.243Z,37.73
2017-05-18T03:26:00.182Z,37.52
2017-05-18T03:27:00.122Z,37.71
2017-05-18T03:28:00.059Z,37.44
2017-05-18T03:28:59.997Z,37.54
2017-05-18T03:29:59.937Z,37.44
2017-05-18T03:30:59.877Z,37.54
2017-05-18T03:31:59.814Z,37.42
2017-05-18T03:32:59.753Z,37.81
2017-05-18T03:33:59.690Z,37.82
2017-05-18T03:34:59.629Z,37.73
2017-05-18T03:35:59.568Z,37.82
2017-05-18T03:36:59.502Z,37.62
2017-05-18T03:37:59.442Z,37.13
2017-05-18T03:38:59.385Z,37.44
2017-05-18T03:39:59.319Z,37.62
2017-05-18T03:40:59.257Z,37.42
2017-05-18T03:41:59.199Z,37.63
2017-05-18T03:42:59.137Z,37.63
2017-05-18T03:43:59.072Z,37.52
2017-05-18T03:44:59.011Z,37.52
2017-05-18T03:45:58.947Z,37.44
2017-05-18T03:46:58.885Z,37.62
2017-05-18T03:47:58.827Z,37.52
2017-05-18T03:48:58.765Z,37.54
2017-05-18T03:49:58.704Z,37.44
2017-05-18T03:50:58.640Z,37.44
2017-05-18T03:51:58.581Z,37.63
2017-05-18T03:52:58.521Z,37.42
2017-05-18T03:53:58.154Z,37.52
2017-05-18T03:54:58.395Z,37.54
2017-05-18T03:55:58.333Z,37.34
2017-05-18T03:56:58.269Z,37.44
2017-05-18T03:57:58.209Z,37.32
2017-05-18T03:58:58.149Z,37.34
2017-05-18T03:59:58.085Z,37.63
2017-05-18T04:00:58.028Z,37.73
2017-05-18T04:01:57.964Z,37.62
2017-05-18T04:02:57.900Z,37.71
2017-05-18T04:03:57.838Z,37.32
2017-05-18T04:04:57.780Z,37.32
2017-05-18T04:05:57.715Z,37.42
2017-05-18T04:06:57.655Z,37.42
2017-05-18T04:07:57.291Z,37.52
2017-05-18T04:08:57.534Z,37.62
2017-05-18T04:09:57.469Z,37.24
2017-05-18T04:10:57.408Z,37.44
2017-05-18T04:11:57.347Z,37.13
2017-05-18T04:12:57.283Z,37.24
2017-05-18T04:13:57.225Z,37.04
2017-05-18T04:14:57.159Z,37.44
2017-05-18T04:15:57.097Z,37.24
2017-05-18T04:16:57.050Z,37.13
2017-05-18T04:17:56.976Z,37.15
2017-05-18T04:18:56.917Z,37.04
2017-05-18T04:19:56.852Z,37.15
2017-05-18T04:20:56.794Z,37.13
2017-05-18T04:21:56.728Z,36.94
2017-05-18T04:22:56.670Z,37.05
2017-05-18T04:23:56.606Z,37.15
2017-05-18T04:24:56.543Z,37.13
2017-05-18T04:25:56.481Z,36.94
2017-05-18T04:26:56.421Z,36.96
2017-05-18T04:27:56.363Z,37.04
2017-05-18T04:28:56.301Z,37.04
2017-05-18T04:29:56.237Z,37.13
2017-05-18T04:30:56.172Z,36.94
2017-05-18T04:31:56.113Z,37.15
2017-05-18T04:32:56.050Z,37.13
2017-05-18T04:33:55.987Z,37.04
2017-05-18T04:34:55.927Z,37.05
2017-05-18T04:35:55.864Z,37.23
2017-05-18T04:36:55.803Z,37.05
2017-05-18T04:37:55.741Z,37.13
2017-05-18T04:38:55.678Z,37.05
2017-05-18T04:39:55.618Z,37.05
2017-05-18T04:40:55.556Z,37.04
2017-05-18T04:41:55.493Z,37.32
2017-05-18T04:42:55.130Z,37.04
2017-05-18T04:43:55.370Z,37.04
2017-05-18T04:44:55.007Z,37.04
2017-05-18T04:45:55.248Z,37.15
2017-05-18T04:46:55.186Z,37.04
2017-05-18T04:47:55.126Z,37.04
2017-05-18T04:48:55.062Z,37.23
2017-05-18T04:49:54.699Z,37.24
2017-05-18T04:50:54.938Z,37.23
2017-05-18T04:51:54.877Z,37.04
2017-05-18T04:52:54.814Z,37.13
2017-05-18T04:53:54.757Z,37.04
2017-05-18T04:54:54.698Z,37.15
2017-05-18T04:55:54.630Z,37.23
2017-05-18T04:56:54.568Z,37.04
2017-05-18T04:57:54.507Z,37.23
2017-05-18T04:58:54.446Z,37.04
2017-05-18T04:59:54.081Z,37.04
2017-05-18T05:00:54.323Z,37.15
2017-05-18T05:01:54.261Z,37.13
2017-05-18T05:02:54.199Z,37.23
2017-05-18T05:03:54.140Z,37.23
2017-05-18T05:04:54.075Z,37.23
2017-05-18T05:05:54.164Z,37.13
2017-05-18T05:06:53.950Z,37.13
2017-05-18T05:07:53.889Z,37.42
2017-05-18T05:08:53.828Z,37.13
2017-05-18T05:09:53.768Z,37.32
2017-05-18T05:10:53.706Z,37.23
2017-05-18T05:11:53.645Z,37.23
2017-05-18T05:12:53.581Z,37.32
2017-05-18T05:13:53.518Z,37.32
2017-05-18T05:14:53.455Z,37.23
2017-05-18T05:15:53.398Z,37.32
2017-05-18T05:16:53.334Z,37.32
2017-05-18T05:17:53.269Z,37.32
2017-05-18T05:18:53.208Z,37.23
2017-05-18T05:19:53.150Z,37.23
2017-05-18T05:20:53.086Z,37.32
2017-05-18T05:21:53.024Z,37.23
2017-05-18T05:22:52.961Z,37.32
2017-05-18T05:23:52.900Z,37.13
2017-05-18T05:24:52.845Z,37.24
2017-05-18T05:25:52.775Z,37.42
2017-05-18T05:26:52.715Z,37.32
2017-05-18T05:27:52.656Z,37.32
2017-05-18T05:28:52.593Z,37.32
2017-05-18T05:29:52.529Z,37.32
2017-05-18T05:30:52.466Z,37.23
2017-05-18T05:31:52.409Z,37.32
2017-05-18T05:32:52.348Z,37.23
2017-05-18T05:33:52.282Z,37.23
2017-05-18T05:34:52.221Z,37.23
2017-05-18T05:35:52.159Z,37.32
2017-05-18T05:36:52.099Z,37.13
2017-05-18T05:37:51.732Z,37.04
2017-05-18T05:38:51.671Z,37.32
2017-05-18T05:39:51.913Z,37.13
2017-05-18T05:40:51.956Z,37.04
2017-05-18T05:41:51.789Z,37.13
2017-05-18T05:42:51.730Z,37.23
2017-05-18T05:43:51.664Z,37.32
2017-05-18T05:44:51.605Z,37.04
2017-05-18T05:45:51.541Z,37.13
2017-05-18T05:46:51.484Z,37.13
2017-05-18T05:47:51.417Z,37.13
2017-05-18T05:48:51.359Z,37.04
2017-05-18T05:49:51.295Z,37.04
2017-05-18T05:50:51.232Z,37.13
2017-05-18T05:51:51.170Z,37.13
2017-05-18T05:52:51.112Z,37.04
2017-05-18T05:53:51.048Z,37.04
2017-05-18T05:54:50.985Z,37.32
2017-05-18T05:55:50.924Z,37.32
2017-05-18T05:56:50.861Z,37.04
2017-05-18T05:57:50.802Z,37.13
2017-05-18T05:58:50.739Z,36.94
2017-05-18T05:59:50.672Z,37.13
2017-05-18T06:00:50.611Z,37.13
2017-05-18T06:01:50.551Z,37.04
2017-05-18T06:02:50.491Z,36.94
2017-05-18T06:03:50.432Z,36.94
2017-05-18T06:04:50.066Z,37.13
2017-05-18T06:05:50.306Z,36.94
2017-05-18T06:06:50.246Z,37.04
2017-05-18T06:07:50.185Z,37.04
2017-05-18T06:08:50.129Z,36.84
2017-05-18T06:09:50.062Z,36.94
2017-05-18T06:10:49.999Z,37.23
2017-05-18T06:11:49.934Z,36.94
2017-05-18T06:12:49.876Z,36.94
2017-05-18T06:13:49.813Z,37.23
2017-05-18T06:14:49.756Z,37.04
2017-05-18T06:15:49.688Z,36.74
2017-05-18T06:16:49.632Z,36.94
2017-05-18T06:17:49.563Z,37.04
2017-05-18T06:18:49.566Z,37.13
2017-05-18T06:19:49.439Z,36.94
2017-05-18T06:20:49.380Z,37.13
2017-05-18T06:21:49.319Z,37.04
2017-05-18T06:22:49.260Z,37.13
2017-05-18T06:23:49.195Z,36.94
2017-05-18T06:24:49.134Z,37.04
2017-05-18T06:25:49.071Z,36.84
2017-05-18T06:26:49.010Z,36.84
2017-05-18T06:27:48.949Z,36.74
2017-05-18T06:28:48.885Z,37.04
2017-05-18T06:29:48.824Z,37.04
2017-05-18T06:30:48.760Z,37.13
2017-05-18T06:31:48.700Z,36.94
2017-05-18T06:32:48.642Z,36.74
2017-05-18T06:33:48.579Z,36.65
2017-05-18T06:34:48.516Z,36.74
2017-05-18T06:35:48.452Z,36.65
2017-05-18T06:36:48.088Z,36.65
2017-05-18T06:37:48.329Z,36.36
2017-05-18T06:38:48.265Z,36.65
2017-05-18T06:39:48.210Z,36.65
2017-05-18T06:40:48.142Z,36.36
2017-05-18T06:41:48.082Z,36.36
2017-05-18T06:42:48.018Z,36.55
2017-05-18T06:43:47.960Z,36.36
2017-05-18T06:44:47.897Z,36.26
2017-05-18T06:45:47.835Z,36.46
2017-05-18T06:46:47.773Z,36.36
2017-05-18T06:47:47.709Z,36.46
2017-05-18T06:48:47.651Z,36.36
2017-05-18T06:49:47.586Z,36.46
2017-05-18T06:50:47.526Z,36.46
2017-05-18T06:51:47.467Z,36.46
2017-05-18T06:52:47.403Z,36.46
2017-05-18T06:53:47.342Z,36.46
2017-05-18T06:54:47.280Z,36.46
2017-05-18T06:55:47.516Z,36.65
2017-05-18T06:56:47.154Z,36.36
2017-05-18T06:57:47.270Z,36.38
2017-05-18T06:58:47.262Z,36.65
2017-05-18T06:59:46.970Z,36.55
2017-05-18T07:00:47.769Z,36.38
2017-05-18T07:01:46.845Z,36.66
2017-05-18T07:02:46.786Z,37.04
2017-05-18T07:03:46.731Z,37.04
2017-05-18T07:04:46.664Z,37.15
2017-05-18T07:05:46.295Z,37.54
2017-05-18T07:06:46.536Z,37.34
2017-05-18T07:07:46.472Z,37.82
2017-05-18T07:08:46.110Z,38.5
2017-05-18T07:09:46.353Z,39.47
2017-05-18T07:10:46.290Z,38.41
2017-05-18T07:11:46.230Z,38.89
2017-05-18T07:12:46.240Z,40.25
2017-05-18T07:13:46.117Z,39.57
2017-05-18T07:14:46.043Z,40.15
2017-05-18T07:15:46.081Z,39.95
2017-05-18T07:16:45.919Z,39.86
2017-05-18T07:17:45.858Z,40.15
2017-05-18T07:18:45.803Z,41.6
2017-05-18T07:19:45.883Z,41.7
2017-05-18T07:20:45.674Z,41.21
2017-05-18T07:21:45.617Z,41.5
2017-05-18T07:22:45.548Z,41.7
2017-05-18T07:23:45.192Z,41.31
2017-05-18T07:24:45.677Z,41.7
2017-05-18T07:25:45.367Z,41.5
2017-05-18T07:26:45.316Z,41.6
2017-05-18T07:27:45.259Z,42.76
2017-05-18T07:28:45.183Z,41.79
2017-05-18T07:29:45.125Z,42.76
2017-05-18T07:30:45.055Z,42.66
2017-05-18T07:31:44.995Z,42.57
2017-05-18T07:32:44.934Z,43.07
2017-05-18T07:33:44.912Z,43.44
2017-05-18T07:34:44.815Z,43.34
2017-05-18T07:35:44.753Z,43.75
2017-05-18T07:36:44.687Z,43.54
2017-05-18T07:37:44.630Z,43.05
2017-05-18T07:38:44.569Z,43.24
2017-05-18T07:39:44.201Z,43.75
2017-05-18T07:40:44.139Z,43.17
2017-05-18T07:41:44.381Z,43.65
2017-05-18T07:42:44.322Z,44.04
2017-05-18T07:43:44.260Z,44.43
2017-05-18T07:44:44.204Z,43.85
2017-05-18T07:45:44.440Z,44.33
2017-05-18T07:46:44.077Z,44.43
2017-05-18T07:47:44.015Z,44.13
2017-05-18T07:48:43.950Z,43.85
2017-05-18T07:49:43.890Z,44.23
2017-05-18T07:50:43.635Z,44.62
2017-05-18T07:51:43.773Z,44.23
2017-05-18T07:52:43.710Z,44.91
2017-05-18T07:53:43.704Z,44.62
2017-05-18T07:54:43.584Z,44.91
2017-05-18T07:55:43.521Z,44.91
2017-05-18T07:56:43.465Z,45.1
2017-05-18T07:57:43.402Z,44.91
2017-05-18T07:58:43.339Z,45.49
2017-05-18T07:59:43.363Z,45.2
2017-05-18T08:00:43.224Z,45.49
2017-05-18T08:01:43.156Z,45.01
2017-05-18T08:02:43.093Z,45.49
2017-05-18T08:03:43.034Z,44.91
2017-05-18T08:04:42.977Z,45.1
2017-05-18T08:05:42.925Z,44.53
2017-05-18T08:06:42.852Z,45.2
2017-05-18T08:07:42.787Z,45.2
2017-05-18T08:08:42.728Z,45.49
2017-05-18T08:09:42.665Z,45.78
2017-05-18T08:10:42.605Z,45.2
2017-05-18T08:11:42.553Z,45.4
2017-05-18T08:12:42.481Z,45.2
2017-05-18T08:13:42.482Z,45.3
2017-05-18T08:14:42.372Z,45.4
2017-05-18T08:15:42.299Z,45.01
2017-05-18T08:16:41.933Z,45.68
2017-05-18T08:17:42.177Z,45.2
2017-05-18T08:18:42.115Z,45.68
2017-05-18T08:19:42.054Z,45.4
2017-05-18T08:20:41.991Z,45.4
2017-05-18T08:21:41.933Z,45.32
2017-05-18T08:22:41.871Z,45.1
2017-05-18T08:23:41.892Z,45.59
2017-05-18T08:24:41.749Z,45.59
2017-05-18T08:25:41.688Z,45.68
2017-05-18T08:26:41.628Z,45.22
2017-05-18T08:27:41.568Z,45.78
2017-05-18T08:28:41.505Z,45.32
2017-05-18T08:29:41.445Z,45.68
2017-05-18T08:30:41.439Z,45.49
2017-05-18T08:31:41.403Z,45.3
2017-05-18T08:32:41.259Z,45.42
2017-05-18T08:33:41.202Z,45.32
2017-05-18T08:34:41.141Z,44.91
2017-05-18T08:35:41.079Z,45.51
2017-05-18T08:36:41.016Z,45.42
2017-05-18T08:37:40.956Z,45.42
2017-05-18T08:38:40.590Z,45.22
2017-05-18T08:39:40.833Z,45.13
2017-05-18T08:40:40.774Z,45.81
2017-05-18T08:41:40.713Z,45.13
2017-05-18T08:42:40.652Z,45.51
2017-05-18T08:43:40.592Z,45.13
2017-05-18T08:44:40.531Z,45.13
2017-05-18T08:45:40.473Z,45.03
2017-05-18T08:46:40.406Z,45.42
2017-05-18T08:47:40.094Z,45.13
2017-05-18T08:48:39.986Z,45.22
2017-05-18T08:49:39.922Z,45.32
2017-05-18T08:50:39.858Z,45.32
2017-05-18T08:51:39.800Z,45.42
2017-05-18T08:52:40.041Z,45.03
2017-05-18T08:53:40.104Z,44.35
2017-05-18T08:54:39.806Z,42.71
2017-05-18T08:55:39.727Z,41.06
2017-05-18T08:56:39.800Z,41.64
2017-05-18T08:57:39.780Z,41.64
2017-05-18T08:58:39.676Z,42.03
2017-05-18T08:59:39.615Z,42.13
2017-05-18T09:00:39.504Z,42.13
2017-05-18T09:01:39.490Z,41.93
2017-05-18T09:02:39.430Z,41.45
2017-05-18T09:03:39.369Z,41.45
2017-05-18T09:04:39.310Z,41.45
2017-05-18T09:05:39.247Z,41.06
2017-05-18T09:06:39.191Z,41.55
2017-05-18T09:07:39.127Z,41.74
2017-05-18T09:08:39.066Z,41.16
2017-05-18T09:09:39.007Z,41.06
2017-05-18T09:10:38.987Z,40.77
2017-05-18T09:11:38.886Z,40.38
2017-05-18T09:12:38.830Z,41.16
2017-05-18T09:13:38.766Z,40.28
2017-05-18T09:14:38.710Z,40.48
2017-05-18T09:15:38.889Z,40.28
2017-05-18T09:16:38.577Z,39.9
2017-05-18T09:17:38.524Z,40.38
2017-05-18T09:18:38.646Z,39.9
2017-05-18T09:19:38.424Z,40.28
2017-05-18T09:20:38.334Z,40.38
2017-05-18T09:21:38.276Z,40.48
2017-05-18T09:22:37.911Z,40.38
2017-05-18T09:23:38.153Z,40.09
2017-05-18T09:24:38.091Z,40.59
2017-05-18T09:25:38.035Z,40.21
2017-05-18T09:26:37.969Z,40.31
2017-05-18T09:27:37.917Z,39.43
2017-05-18T09:28:37.849Z,40.48
2017-05-18T09:29:37.812Z,40.4
2017-05-18T09:30:37.728Z,40.01
2017-05-18T09:31:37.674Z,39.82
2017-05-18T09:32:37.611Z,39.72
2017-05-18T09:33:37.548Z,39.43
2017-05-18T09:34:37.489Z,39.53
2017-05-18T09:35:37.373Z,39.62
2017-05-18T09:36:37.365Z,39.34
2017-05-18T09:37:37.364Z,39.72
2017-05-18T09:38:37.247Z,39.53
2017-05-18T09:39:37.185Z,39.82
2017-05-18T09:40:37.122Z,39.62
2017-05-18T09:41:37.062Z,39.72
2017-05-18T09:42:37.000Z,39.53
2017-05-18T09:43:36.940Z,39.72
2017-05-18T09:44:36.880Z,39.72
2017-05-18T09:45:36.817Z,39.72
2017-05-18T09:46:36.759Z,39.04
2017-05-18T09:47:36.398Z,39.53
2017-05-18T09:48:36.637Z,39.34
2017-05-18T09:49:36.578Z,39.92
2017-05-18T09:50:36.555Z,39.53
2017-05-18T09:51:36.452Z,40.11
2017-05-18T09:52:36.409Z,40.21
2017-05-18T09:53:36.539Z,39.04
2017-05-18T09:54:36.272Z,39.34
2017-05-18T09:55:35.909Z,37.21
2017-05-18T09:56:35.848Z,37.61
2017-05-18T09:57:36.094Z,38.46
2017-05-18T09:58:36.029Z,37.79
2017-05-18T09:59:36.052Z,38.29
2017-05-18T10:00:35.908Z,38.29
2017-05-18T10:01:35.849Z,36.62
2017-05-18T10:02:35.788Z,37.51
2017-05-18T10:03:35.727Z,38.39
2017-05-18T10:04:35.726Z,38.48
2017-05-18T10:05:35.609Z,38.58
2017-05-18T10:06:35.541Z,39.14
2017-05-18T10:07:35.180Z,39.26
2017-05-18T10:08:35.423Z,39.06
2017-05-18T10:09:35.365Z,39.16
2017-05-18T10:10:35.000Z,39.65
2017-05-18T10:11:35.243Z,39.45
2017-05-18T10:12:35.184Z,39.55
2017-05-18T10:13:35.124Z,39.55
2017-05-18T10:14:35.067Z,39.65
2017-05-18T10:15:35.001Z,39.65
2017-05-18T10:16:34.982Z,40.23
2017-05-18T10:17:35.088Z,40.42
2017-05-18T10:18:34.518Z,40.52
2017-05-18T10:19:34.765Z,40.13
2017-05-18T10:20:34.700Z,40.61
2017-05-18T10:21:34.662Z,40.03
2017-05-18T10:22:34.578Z,40.91
2017-05-18T10:23:34.218Z,40.61
2017-05-18T10:24:34.454Z,40.42
2017-05-18T10:25:34.399Z,40.33
2017-05-18T10:26:34.338Z,36.44
2017-05-18T10:27:34.281Z,36.06
2017-05-18T10:28:34.215Z,37.71
2017-05-18T10:29:34.156Z,35.38
2017-05-18T10:30:34.105Z,34.8
2017-05-18T10:31:34.036Z,34.51
2017-05-18T10:32:33.974Z,34.61
2017-05-18T10:33:33.916Z,33.92
2017-05-18T10:34:33.561Z,33.72
2017-05-18T10:35:33.492Z,33.83
2017-05-18T10:36:33.737Z,33.52
2017-05-18T10:37:33.673Z,33.06
2017-05-18T10:38:33.614Z,33.42
2017-05-18T10:39:33.551Z,33.64
2017-05-18T10:40:33.491Z,33.52
2017-05-18T10:41:33.432Z,33.23
2017-05-18T10:42:33.370Z,33.33
2017-05-18T10:43:33.311Z,33.04
2017-05-18T10:44:33.249Z,33.14
2017-05-18T10:45:33.206Z,32.75
2017-05-18T10:46:32.832Z,33.23
2017-05-18T10:47:33.071Z,33.14
2017-05-18T10:48:32.712Z,33.06
2017-05-18T10:49:32.974Z,33.14
2017-05-18T10:50:32.888Z,32.75
2017-05-18T10:51:32.828Z,32.36
2017-05-18T10:52:32.766Z,32.84
2017-05-18T10:53:32.711Z,32.84
2017-05-18T10:54:32.644Z,32.84
2017-05-18T10:55:32.586Z,32.46
2017-05-18T10:56:32.526Z,32.76
2017-05-18T10:57:32.463Z,32.84
2017-05-18T10:58:32.404Z,32.75
2017-05-18T10:59:32.346Z,32.65
2017-05-18T11:00:32.586Z,32.36
2017-05-18T11:01:32.220Z,32.84
2017-05-18T11:02:32.161Z,31.78
2017-05-18T11:03:32.102Z,31.68
2017-05-18T11:04:32.052Z,32.46
2017-05-18T11:05:32.092Z,32.46
2017-05-18T11:06:31.920Z,32.56
2017-05-18T11:07:31.862Z,32.65
2017-05-18T11:08:31.841Z,32.65
2017-05-18T11:09:31.742Z,32.56
2017-05-18T11:10:32.040Z,32.75
2017-05-18T11:11:31.619Z,33.04
2017-05-18T11:12:31.555Z,32.56
2017-05-18T11:13:31.495Z,32.75
2017-05-18T11:14:31.436Z,32.56
2017-05-18T11:15:31.774Z,32.75
2017-05-18T11:16:31.314Z,32.84
2017-05-18T11:17:31.255Z,32.75
2017-05-18T11:18:30.889Z,32.84
2017-05-18T11:19:31.377Z,32.75
2017-05-18T11:20:31.073Z,32.46
2017-05-18T11:21:31.011Z,32.56
2017-05-18T11:22:30.955Z,32.84
2017-05-18T11:23:30.895Z,32.56
2017-05-18T11:24:30.835Z,32.46
2017-05-18T11:25:30.770Z,32.56
2017-05-18T11:26:30.767Z,32.56
2017-05-18T11:27:30.665Z,32.56
2017-05-18T11:28:30.588Z,32.65
2017-05-18T11:29:30.531Z,33.04
2017-05-18T11:30:30.474Z,32.56
2017-05-18T11:31:30.424Z,32.65
2017-05-18T11:32:30.344Z,32.75
2017-05-18T11:33:30.286Z,32.75
2017-05-18T11:34:30.235Z,32.75
2017-05-18T11:35:30.622Z,32.84
2017-05-18T11:36:30.103Z,32.84
2017-05-18T11:37:30.044Z,32.65
2017-05-18T11:38:29.982Z,32.65
2017-05-18T11:39:29.947Z,32.84
2017-05-18T11:40:29.915Z,32.65
2017-05-18T11:41:29.889Z,32.84
2017-05-18T11:42:29.743Z,32.75
2017-05-18T11:43:29.679Z,32.75
2017-05-18T11:44:29.619Z,32.65
2017-05-18T11:45:29.558Z,32.75
2017-05-18T11:46:29.493Z,32.65
2017-05-18T11:47:29.438Z,33.04
2017-05-18T11:48:29.380Z,32.65
2017-05-18T11:49:29.314Z,32.56
2017-05-18T11:50:29.254Z,32.84
2017-05-18T11:51:29.266Z,33.04
2017-05-18T11:52:28.830Z,32.75
2017-05-18T11:53:29.070Z,32.75
2017-05-18T11:54:29.011Z,32.54
2017-05-18T11:55:28.950Z,32.94
2017-05-18T11:56:28.887Z,32.92
2017-05-18T11:57:28.828Z,32.94
2017-05-18T11:58:28.774Z,32.65
2017-05-18T11:59:28.715Z,32.75
2017-05-18T12:00:28.645Z,32.75
2017-05-18T12:01:28.600Z,32.84
2017-05-18T12:02:28.528Z,32.56
2017-05-18T12:03:28.466Z,32.46
2017-05-18T12:04:28.456Z,31.97
2017-05-18T12:05:28.345Z,32.17
2017-05-18T12:06:28.284Z,32.36
2017-05-18T12:07:28.221Z,32.17
2017-05-18T12:08:28.167Z,32.17
2017-05-18T12:09:28.101Z,31.68
2017-05-18T12:10:28.042Z,32.17
2017-05-18T12:11:27.990Z,32.65
2017-05-18T12:12:27.920Z,32.46
2017-05-18T12:13:27.860Z,31.68
2017-05-18T12:14:27.795Z,32.46
2017-05-18T12:15:27.739Z,32.56
2017-05-18T12:16:27.676Z,32.56
2017-05-18T12:17:27.641Z,32.46
2017-05-18T12:18:27.554Z,32.56
2017-05-18T12:19:27.492Z,31.96
2017-05-18T12:20:27.437Z,32.17
2017-05-18T12:21:27.371Z,32.44
2017-05-18T12:22:27.323Z,32.17
2017-05-18T12:23:27.075Z,31.97
2017-05-18T12:24:26.886Z,31.78
2017-05-18T12:25:26.825Z,31.68
2017-05-18T12:26:27.068Z,32.34
2017-05-18T12:27:27.670Z,32.17
2017-05-18T12:28:26.947Z,32.07
2017-05-18T12:29:26.885Z,32.06
2017-05-18T12:30:26.926Z,32.34
2017-05-18T12:31:26.771Z,32.15
2017-05-18T12:32:26.701Z,32.26
2017-05-18T12:33:26.653Z,32.17
2017-05-18T12:34:26.581Z,32.07
2017-05-18T12:35:26.741Z,31.96
2017-05-18T12:36:27.104Z,31.97
2017-05-18T12:37:26.405Z,31.76
2017-05-18T12:38:26.395Z,32.15
2017-05-18T12:39:26.279Z,32.17
2017-05-18T12:40:26.216Z,32.06
2017-05-18T12:41:26.227Z,32.34
2017-05-18T12:42:26.097Z,32.15
2017-05-18T12:43:26.114Z,32.15
2017-05-18T12:44:25.983Z,32.06
2017-05-18T12:45:26.014Z,32.15
2017-05-18T12:46:25.856Z,32.34
2017-05-18T12:47:25.793Z,31.76
2017-05-18T12:48:25.879Z,31.86
2017-05-18T12:49:25.675Z,31.28
2017-05-18T12:50:25.861Z,31.37
2017-05-18T12:51:25.316Z,31.39
2017-05-18T12:52:25.489Z,30.91
2017-05-18T12:53:25.433Z,30.71
2017-05-18T12:54:25.374Z,30.71